Terminal Aerodrome Forecast
Issued by NWS

Home | Current Version | Previous Version | Text Only | Print | Product List | Glossary On
Versions: 1 2 3 4 5 6 7 8 9 10 11 12 13
000
FTUS46 KSEW 241721
TAFBFI
TAF
KBFI 241721Z 2418/2518 16008KT P6SM SCT040 BKN050
      TEMPO 2418/2420 -SHRA BKN035 OVC050
     FM242000 19010G18KT P6SM SCT040 BKN050
      TEMPO 2421/2501 -SHRA BKN035 OVC050
     FM250300 17008KT P6SM VCSH SCT040 BKN050
     FM251200 16006KT P6SM VCSH BKN035 BKN050=

USA.gov is the U.S. government's official web portal to all federal, state and local government web resources and services.